Logten, Denmark
Current Conditions -  °F | °C
As of 5:20 AM on Friday 28 Nov 2014 (Local Time) from EKAH Reporting Station
Broken Clouds Broken Clouds  
Wind Chill: 37°   Ceiling: 1800
Heat Index: 43°   Visibility: 6mi
Dew Point: 34°   Wind: 12mph
Humidity: 70%   Direction: 110°ESE
Pressure: 30.18"   Gusts: NA
Location:  56.27°N, 10.31°E
Report Text: EKAH 280420Z AUTO 11010KT 080V150 9999NDV BKN018/// BKN053///06/01 Q1022
Loading
Personal Weather Stations






























Interactive Weather Map New forecast layout! Learn more

10-Day Weather Forecast

Advertisements
Track Severe Weather on mobile